createdAt,value
2017-09-26T00:01:47.098Z,10.05
2017-09-26T00:04:14.647Z,10.00
2017-09-26T00:06:42.959Z,11.10
2017-09-26T00:09:11.074Z,10.93
2017-09-26T00:11:38.638Z,10.97
2017-09-26T00:14:07.692Z,12.02
2017-09-26T00:16:35.237Z,11.20
2017-09-26T00:19:02.800Z,11.33
2017-09-26T00:21:30.336Z,10.53
2017-09-26T00:23:58.663Z,11.30
2017-09-26T00:26:26.206Z,10.20
2017-09-26T00:28:53.763Z,9.67
2017-09-26T00:31:21.326Z,10.20
2017-09-26T00:33:48.880Z,10.60
2017-09-26T00:36:16.418Z,10.40
2017-09-26T00:38:43.978Z,9.97
2017-09-26T00:41:11.518Z,10.70
2017-09-26T00:43:39.822Z,9.90
2017-09-26T00:46:07.378Z,10.25
2017-09-26T00:48:34.944Z,9.93
2017-09-26T00:51:02.494Z,10.07
2017-09-26T00:53:30.066Z,9.40
2017-09-26T00:55:57.616Z,11.20
2017-09-26T00:58:25.181Z,9.77
2017-09-26T01:00:52.700Z,10.40
2017-09-26T01:16:42.752Z,11.40
2017-09-26T01:19:10.493Z,8.90
2017-09-26T01:21:38.008Z,9.80
2017-09-26T01:24:06.321Z,10.33
2017-09-26T01:26:33.858Z,9.53
2017-09-26T01:29:01.400Z,10.60
2017-09-26T01:31:29.700Z,12.07
2017-09-26T01:33:57.247Z,10.50
2017-09-26T01:36:25.543Z,10.40
2017-09-26T01:38:53.072Z,11.53
2017-09-26T01:41:20.627Z,11.33
2017-09-26T01:43:48.936Z,11.07
2017-09-26T01:46:16.478Z,11.37
2017-09-26T01:48:44.771Z,10.75
2017-09-26T01:51:12.315Z,11.40
2017-09-26T01:53:40.618Z,10.80
2017-09-26T01:56:09.059Z,11.47
2017-09-26T01:58:36.592Z,12.40
2017-09-26T02:01:04.139Z,13.20
2017-09-26T02:03:31.676Z,11.60
2017-09-26T02:05:59.225Z,12.90
2017-09-26T02:08:26.776Z,11.30
2017-09-26T02:10:54.321Z,11.60
2017-09-26T02:13:22.613Z,11.33
2017-09-26T02:15:50.140Z,11.47
2017-09-26T02:18:17.673Z,11.03
2017-09-26T02:20:45.217Z,10.90
2017-09-26T02:23:12.749Z,11.07
2017-09-26T02:25:41.053Z,11.30
2017-09-26T02:28:08.604Z,10.60
2017-09-26T02:30:36.136Z,11.27
2017-09-26T02:33:04.481Z,10.20
2017-09-26T02:35:32.005Z,10.27
2017-09-26T02:37:59.542Z,10.90
2017-09-26T02:40:27.069Z,9.93
2017-09-26T02:42:56.208Z,10.65
2017-09-26T02:45:23.746Z,10.63
2017-09-26T02:47:52.050Z,10.63
2017-09-26T02:50:19.605Z,10.53
2017-09-26T02:52:47.157Z,10.70
2017-09-26T02:55:14.685Z,11.00
2017-09-26T02:57:42.234Z,12.13
2017-09-26T03:00:09.779Z,12.00
2017-09-26T03:02:37.325Z,10.75
2017-09-26T03:05:04.870Z,11.93
2017-09-26T03:07:32.449Z,10.77
2017-09-26T03:09:59.976Z,11.10
2017-09-26T03:12:27.521Z,11.10
2017-09-26T03:14:55.061Z,11.30
2017-09-26T03:17:22.609Z,11.00
2017-09-26T03:19:50.154Z,10.10
2017-09-26T03:22:17.705Z,10.50
2017-09-26T03:24:45.248Z,11.00
2017-09-26T03:27:12.810Z,10.07
2017-09-26T03:29:40.342Z,10.80
2017-09-26T03:32:07.879Z,13.70
2017-09-26T03:34:36.180Z,11.90
2017-09-26T03:37:03.729Z,11.37
2017-09-26T03:39:32.032Z,10.30
2017-09-26T03:41:59.561Z,11.30
2017-09-26T03:44:27.879Z,10.70
2017-09-26T03:46:55.406Z,12.10
2017-09-26T03:49:22.973Z,11.27
2017-09-26T03:51:50.515Z,10.82
2017-09-26T03:54:18.839Z,10.23
2017-09-26T03:56:46.381Z,10.60
2017-09-26T03:59:13.912Z,10.63
2017-09-26T04:01:42.210Z,10.10
2017-09-26T04:04:09.761Z,10.70
2017-09-26T04:06:37.290Z,11.70
2017-09-26T04:09:05.634Z,11.33
2017-09-26T04:11:33.164Z,11.00
2017-09-26T04:14:00.721Z,11.60
2017-09-26T04:16:28.293Z,11.07
2017-09-26T04:18:55.841Z,11.20
2017-09-26T04:21:23.382Z,10.80
2017-09-26T04:23:51.708Z,11.80
2017-09-26T04:26:19.241Z,11.20
2017-09-26T04:28:46.778Z,11.57
2017-09-26T04:31:15.086Z,11.40
2017-09-26T04:33:42.616Z,11.30
2017-09-26T04:36:10.921Z,10.53
2017-09-26T04:38:38.457Z,13.23
2017-09-26T04:41:06.773Z,12.40
2017-09-26T04:43:34.292Z,13.97
2017-09-26T04:46:02.610Z,13.07
2017-09-26T04:48:30.165Z,12.67
2017-09-26T04:50:57.708Z,11.57
2017-09-26T04:53:25.234Z,13.00
2017-09-26T04:55:53.538Z,12.00
2017-09-26T04:58:21.082Z,13.23
2017-09-26T05:00:48.634Z,12.13
2017-09-26T05:03:16.892Z,11.93
2017-09-26T05:05:44.380Z,13.50
2017-09-26T05:08:11.909Z,12.70
2017-09-26T05:10:39.422Z,13.00
2017-09-26T05:13:06.923Z,12.80
2017-09-26T05:15:34.428Z,12.60
2017-09-26T05:18:01.903Z,11.97
2017-09-26T05:20:29.381Z,13.10
2017-09-26T05:22:56.877Z,11.90
2017-09-26T05:25:24.366Z,12.60
2017-09-26T05:27:51.875Z,12.40
2017-09-26T05:30:19.367Z,12.20
2017-09-26T05:32:46.859Z,10.97
2017-09-26T05:35:14.355Z,11.40
2017-09-26T05:37:42.633Z,11.33
2017-09-26T05:40:10.115Z,11.80
2017-09-26T05:42:47.615Z,12.07
2017-09-26T05:45:15.113Z,11.23
2017-09-26T05:47:42.628Z,12.00
2017-09-26T05:50:10.108Z,11.50
2017-09-26T05:52:37.594Z,11.10
2017-09-26T05:55:05.090Z,12.13
2017-09-26T05:57:32.588Z,13.73
2017-09-26T06:00:00.065Z,12.97
2017-09-26T06:02:27.576Z,11.85
2017-09-26T06:04:55.062Z,13.63
2017-09-26T06:07:22.556Z,15.17
2017-09-26T06:09:50.060Z,11.80
2017-09-26T06:12:17.557Z,13.37
2017-09-26T06:14:48.578Z,13.83
2017-09-26T06:17:16.098Z,12.80
2017-09-26T06:19:43.589Z,14.53
2017-09-26T06:22:11.087Z,13.00
2017-09-26T06:24:51.437Z,13.07
2017-09-26T06:27:18.932Z,13.57
2017-09-26T06:29:46.433Z,14.90
2017-09-26T06:32:13.924Z,14.33
2017-09-26T06:34:41.432Z,12.85
2017-09-26T06:37:08.930Z,13.80
2017-09-26T06:39:36.419Z,14.40
2017-09-26T06:42:04.675Z,15.07
2017-09-26T06:44:32.177Z,16.07
2017-09-26T06:46:59.674Z,15.60
2017-09-26T06:49:27.958Z,15.37
2017-09-26T06:51:56.200Z,15.90
2017-09-26T06:54:30.272Z,15.70
2017-09-26T06:56:58.514Z,15.23
2017-09-26T06:59:26.017Z,17.27
2017-09-26T07:01:53.563Z,16.33
2017-09-26T07:04:21.825Z,15.80
2017-09-26T07:06:49.307Z,15.47
2017-09-26T07:09:16.793Z,17.00
2017-09-26T07:11:44.274Z,16.10
2017-09-26T07:14:11.769Z,17.37
2017-09-26T07:16:39.997Z,16.73
2017-09-26T07:19:07.482Z,15.40
2017-09-26T07:21:34.969Z,16.80
2017-09-26T07:24:03.209Z,17.30
2017-09-26T07:26:30.707Z,17.87
2017-09-26T07:28:58.194Z,16.73
2017-09-26T07:31:25.683Z,18.40
2017-09-26T07:33:54.677Z,18.00
2017-09-26T07:36:22.166Z,19.17
2017-09-26T07:38:51.359Z,20.47
2017-09-26T07:41:19.608Z,18.43
2017-09-26T07:43:47.087Z,21.17
2017-09-26T07:46:15.365Z,23.30
2017-09-26T07:48:43.624Z,22.60
2017-09-26T07:51:11.893Z,23.62
2017-09-26T07:53:39.387Z,24.67
2017-09-26T07:56:06.877Z,23.87
2017-09-26T07:58:34.366Z,24.93
2017-09-26T08:01:02.039Z,27.63
2017-09-26T08:03:30.057Z,27.67
2017-09-26T08:05:58.043Z,27.83
2017-09-26T08:08:26.110Z,26.73
2017-09-26T08:10:53.584Z,28.37
2017-09-26T08:13:21.074Z,27.95
2017-09-26T08:15:48.563Z,27.37
2017-09-26T08:18:16.054Z,26.40
2017-09-26T08:20:43.592Z,27.10
2017-09-26T08:23:11.863Z,28.20
2017-09-26T08:25:39.341Z,28.27
2017-09-26T08:28:06.850Z,27.90
2017-09-26T08:30:34.343Z,27.77
2017-09-26T08:33:01.847Z,28.03
2017-09-26T08:35:29.321Z,28.10
2017-09-26T08:37:57.572Z,27.63
2017-09-26T08:40:25.077Z,27.20
2017-09-26T08:42:52.570Z,25.23
2017-09-26T08:45:23.902Z,25.80
2017-09-26T08:47:51.424Z,24.80
2017-09-26T08:50:19.690Z,26.50
2017-09-26T08:52:47.192Z,25.57
2017-09-26T08:55:14.684Z,25.73
2017-09-26T08:57:42.188Z,26.60
2017-09-26T09:00:09.687Z,26.27
2017-09-26T09:02:37.182Z,25.60
2017-09-26T09:05:04.673Z,26.33
2017-09-26T09:07:32.166Z,24.23
2017-09-26T09:09:59.663Z,25.60
2017-09-26T09:12:27.909Z,25.50
2017-09-26T09:14:55.414Z,24.27
2017-09-26T09:17:22.915Z,24.43
2017-09-26T09:19:53.960Z,24.95
2017-09-26T09:22:21.441Z,24.37
2017-09-26T09:24:48.952Z,26.53
2017-09-26T09:27:16.426Z,24.80
2017-09-26T09:29:43.932Z,24.73
2017-09-26T09:32:12.181Z,24.80
2017-09-26T09:34:39.677Z,24.07
2017-09-26T09:37:07.926Z,23.70
2017-09-26T09:39:35.438Z,23.60
2017-09-26T09:42:02.926Z,24.33
2017-09-26T09:44:30.440Z,24.10
2017-09-26T09:46:57.937Z,22.83
2017-09-26T09:49:25.422Z,22.97
2017-09-26T09:51:53.669Z,22.03
2017-09-26T09:54:21.176Z,24.60
2017-09-26T09:56:49.438Z,22.13
2017-09-26T09:59:17.727Z,23.00
2017-09-26T10:01:45.969Z,22.80
2017-09-26T10:04:14.224Z,21.42
2017-09-26T10:06:41.707Z,22.53
2017-09-26T10:09:09.213Z,21.70
2017-09-26T10:11:36.696Z,23.07
2017-09-26T10:14:04.190Z,21.50
2017-09-26T10:16:31.687Z,20.73
2017-09-26T10:18:59.179Z,20.03
2017-09-26T10:21:26.705Z,19.17
2017-09-26T10:23:54.199Z,20.87
2017-09-26T10:26:21.689Z,20.20
2017-09-26T10:28:49.934Z,20.17
2017-09-26T10:31:17.434Z,20.50
2017-09-26T10:33:45.707Z,18.90
2017-09-26T10:36:13.973Z,19.00
2017-09-26T10:38:41.463Z,19.57
2017-09-26T10:41:08.968Z,18.67
2017-09-26T10:43:36.467Z,20.30
2017-09-26T10:46:04.728Z,18.40
2017-09-26T10:48:32.988Z,17.53
2017-09-26T10:51:00.481Z,17.20
2017-09-26T10:53:28.937Z,16.20
2017-09-26T10:55:56.457Z,17.07
2017-09-26T10:58:23.943Z,15.07
2017-09-26T11:00:51.422Z,13.60
2017-09-26T11:03:19.680Z,13.77
2017-09-26T11:05:47.172Z,12.20
2017-09-26T11:08:22.729Z,11.77
2017-09-26T11:10:50.212Z,11.93
2017-09-26T11:13:17.714Z,12.13
2017-09-26T11:15:45.965Z,10.23
2017-09-26T11:18:13.464Z,10.70
2017-09-26T11:20:40.948Z,11.30
2017-09-26T11:23:08.473Z,9.40
2017-09-26T11:25:36.718Z,8.40
2017-09-26T11:28:05.704Z,9.70
2017-09-26T11:30:33.197Z,9.63
2017-09-26T11:33:01.459Z,9.37
2017-09-26T11:35:28.954Z,10.13
2017-09-26T11:37:56.440Z,10.27
2017-09-26T11:40:23.913Z,9.07
2017-09-26T11:42:52.178Z,10.35
2017-09-26T11:45:19.666Z,9.73
2017-09-26T11:47:47.928Z,8.75
2017-09-26T11:50:15.397Z,8.83
2017-09-26T11:52:42.904Z,10.57
2017-09-26T11:55:10.382Z,15.07
2017-09-26T11:57:37.882Z,20.17
2017-09-26T12:00:06.146Z,20.63
2017-09-26T12:02:33.637Z,18.40
2017-09-26T12:05:01.145Z,22.13
2017-09-26T12:07:28.636Z,16.10
2017-09-26T12:09:57.013Z,16.80
2017-09-26T12:12:25.277Z,17.87
2017-09-26T12:14:54.994Z,18.87
2017-09-26T12:17:23.253Z,17.17
2017-09-26T12:19:50.749Z,19.47
2017-09-26T12:22:18.236Z,19.10
2017-09-26T12:24:45.732Z,18.10
2017-09-26T12:27:13.205Z,20.57
2017-09-26T12:29:48.679Z,18.00
2017-09-26T12:32:16.178Z,19.13
2017-09-26T12:34:43.686Z,18.20
2017-09-26T12:37:11.165Z,18.93
2017-09-26T12:39:38.675Z,19.23
2017-09-26T12:42:06.166Z,18.20
2017-09-26T12:44:33.692Z,18.30
2017-09-26T12:47:01.173Z,17.37
2017-09-26T12:49:28.664Z,21.03
2017-09-26T12:51:56.138Z,17.90
2017-09-26T12:54:23.649Z,15.50
2017-09-26T12:56:51.906Z,13.97
2017-09-26T12:59:20.182Z,13.15
2017-09-26T13:01:48.420Z,14.80
2017-09-26T13:04:15.897Z,14.93
2017-09-26T13:06:43.382Z,16.67
2017-09-26T13:09:11.629Z,17.83
2017-09-26T13:11:39.889Z,14.30
2017-09-26T13:14:07.378Z,13.00
2017-09-26T13:16:34.883Z,13.83
2017-09-26T13:19:02.358Z,12.80
2017-09-26T13:21:29.858Z,13.62
2017-09-26T13:23:58.105Z,13.73
2017-09-26T13:26:25.590Z,12.97
2017-09-26T13:28:53.837Z,11.60
2017-09-26T13:31:21.336Z,12.87
2017-09-26T13:33:49.601Z,12.37
2017-09-26T13:36:17.098Z,12.83
2017-09-26T13:38:44.584Z,11.97
2017-09-26T13:41:12.080Z,12.23
2017-09-26T13:43:40.326Z,11.93
2017-09-26T13:46:07.816Z,12.00
2017-09-26T13:48:36.071Z,11.87
2017-09-26T13:51:03.585Z,10.50
2017-09-26T13:53:31.069Z,9.90
2017-09-26T13:55:58.553Z,11.33
2017-09-26T13:58:26.041Z,10.03
2017-09-26T14:00:53.531Z,10.13
2017-09-26T14:03:21.030Z,13.93
2017-09-26T14:05:49.285Z,13.68
2017-09-26T14:08:16.782Z,13.33
2017-09-26T14:10:45.032Z,12.50
2017-09-26T14:13:12.601Z,10.07
2017-09-26T14:15:40.864Z,10.00
2017-09-26T14:18:08.373Z,7.90
2017-09-26T14:20:35.848Z,7.70
2017-09-26T14:23:03.363Z,6.93
2017-09-26T14:25:31.606Z,6.90
2017-09-26T14:27:59.116Z,6.43
2017-09-26T14:30:26.597Z,6.67
2017-09-26T14:32:54.095Z,6.17
2017-09-26T14:35:21.701Z,6.07
2017-09-26T14:37:49.199Z,6.33
2017-09-26T14:40:16.672Z,7.85
2017-09-26T14:42:44.918Z,8.67
2017-09-26T14:45:12.421Z,8.80
2017-09-26T14:47:40.670Z,8.70
2017-09-26T14:50:08.167Z,8.40
2017-09-26T14:52:35.638Z,8.60
2017-09-26T14:55:03.134Z,8.20
2017-09-26T14:57:30.625Z,8.23
2017-09-26T14:59:58.882Z,9.17
2017-09-26T15:02:26.361Z,9.27
2017-09-26T15:04:54.645Z,9.27
2017-09-26T15:07:22.124Z,9.05
2017-09-26T15:09:49.624Z,9.93
2017-09-26T15:12:17.110Z,11.35
2017-09-26T15:14:45.381Z,9.07
2017-09-26T15:17:13.656Z,9.07
2017-09-26T15:19:41.913Z,11.07
2017-09-26T15:22:09.398Z,9.60
2017-09-26T15:24:37.653Z,8.93
2017-09-26T15:27:05.151Z,15.57
2017-09-26T15:29:32.630Z,15.60
2017-09-26T15:32:00.131Z,15.53
2017-09-26T15:34:27.621Z,19.25
2017-09-26T15:36:55.100Z,18.23
2017-09-26T15:39:22.591Z,16.30
2017-09-26T15:41:50.085Z,11.37
2017-09-26T15:44:18.342Z,12.50
2017-09-26T15:46:45.843Z,12.70
2017-09-26T15:49:13.324Z,10.80
2017-09-26T15:51:40.828Z,13.00
2017-09-26T15:54:09.092Z,12.27
2017-09-26T15:56:36.590Z,14.20
2017-09-26T15:59:04.326Z,13.30
2017-09-26T16:01:32.596Z,13.10
2017-09-26T16:04:00.833Z,12.70
2017-09-26T16:06:28.333Z,16.27
2017-09-26T16:08:56.607Z,15.50
2017-09-26T16:11:24.879Z,13.90
2017-09-26T16:13:52.374Z,12.80
2017-09-26T16:16:19.874Z,12.20
2017-09-26T16:18:47.370Z,12.80
2017-09-26T16:21:14.875Z,12.37
2017-09-26T16:23:42.389Z,12.90
2017-09-26T16:26:10.699Z,12.37
2017-09-26T16:28:38.220Z,14.60
2017-09-26T16:31:06.475Z,13.40
2017-09-26T16:33:34.783Z,13.63
2017-09-26T16:36:03.024Z,19.80
2017-09-26T16:38:30.504Z,22.50
2017-09-26T16:40:58.764Z,24.65
2017-09-26T16:43:26.251Z,24.80
2017-09-26T16:45:53.737Z,29.73
2017-09-26T16:48:21.243Z,25.45
2017-09-26T16:50:48.740Z,22.80
2017-09-26T16:53:16.231Z,25.93
2017-09-26T16:55:43.723Z,26.63
2017-09-26T16:58:11.974Z,26.27
2017-09-26T17:00:39.457Z,26.13
2017-09-26T17:03:07.769Z,26.75
2017-09-26T17:05:35.258Z,28.73
2017-09-26T17:08:02.736Z,28.30
2017-09-26T17:10:30.993Z,27.10
2017-09-26T17:12:58.469Z,26.03
2017-09-26T17:15:29.742Z,26.77
2017-09-26T17:17:58.017Z,26.20
2017-09-26T17:20:26.293Z,27.10
2017-09-26T17:22:54.559Z,26.33
2017-09-26T17:25:22.821Z,23.98
2017-09-26T17:27:50.293Z,25.40
2017-09-26T17:30:18.547Z,21.73
2017-09-26T17:32:46.021Z,23.30
2017-09-26T17:35:14.290Z,22.63
2017-09-26T17:37:41.784Z,22.50
2017-09-26T17:40:09.281Z,24.40
2017-09-26T17:42:36.777Z,28.03
2017-09-26T17:45:05.045Z,28.73
2017-09-26T17:47:32.545Z,25.10
2017-09-26T17:50:00.037Z,22.47
2017-09-26T17:52:27.530Z,24.80
2017-09-26T17:54:55.773Z,25.13
2017-09-26T17:57:23.282Z,19.70
2017-09-26T17:59:50.814Z,19.13
2017-09-26T18:02:18.304Z,20.30
2017-09-26T18:04:45.784Z,23.00
2017-09-26T18:07:13.273Z,21.57
2017-09-26T18:09:40.799Z,19.70
2017-09-26T18:12:08.289Z,21.07
2017-09-26T18:14:35.765Z,23.10
2017-09-26T18:17:04.016Z,22.53
2017-09-26T18:19:32.974Z,21.58
2017-09-26T18:22:00.475Z,27.43
2017-09-26T18:24:29.462Z,18.73
2017-09-26T18:26:56.944Z,15.03
2017-09-26T18:29:25.234Z,13.70
2017-09-26T18:31:53.498Z,12.70
2017-09-26T18:34:21.747Z,15.20
2017-09-26T18:36:49.331Z,18.75
2017-09-26T18:39:17.631Z,20.97
2017-09-26T18:41:45.156Z,22.33
2017-09-26T18:44:12.701Z,21.27
2017-09-26T18:46:40.180Z,17.97
2017-09-26T18:49:07.721Z,16.80
2017-09-26T18:51:35.197Z,16.07
2017-09-26T18:54:02.759Z,16.90
2017-09-26T18:56:30.291Z,15.87
2017-09-26T18:58:57.841Z,16.77
2017-09-26T19:01:25.360Z,16.70
2017-09-26T19:03:52.917Z,17.93
2017-09-26T19:06:21.216Z,17.57
2017-09-26T19:08:48.768Z,17.77
2017-09-26T19:11:16.248Z,17.70
2017-09-26T19:13:43.744Z,18.70
2017-09-26T19:16:11.357Z,18.13
2017-09-26T19:18:38.898Z,18.70
2017-09-26T19:21:06.441Z,18.37
2017-09-26T19:23:34.764Z,30.20
2017-09-26T19:26:02.244Z,26.40
2017-09-26T19:28:30.544Z,20.30
2017-09-26T19:30:58.857Z,22.40
2017-09-26T19:33:26.333Z,30.13
2017-09-26T19:35:53.881Z,22.23
2017-09-26T19:38:21.413Z,20.00
2017-09-26T19:40:49.001Z,18.33
2017-09-26T19:43:16.532Z,17.90
2017-09-26T19:45:44.832Z,15.40
2017-09-26T19:48:13.904Z,14.83
2017-09-26T19:50:42.156Z,13.90
2017-09-26T19:53:09.740Z,13.27
2017-09-26T19:55:38.046Z,13.17
2017-09-26T19:58:05.589Z,13.67
2017-09-26T20:00:33.082Z,14.80
2017-09-26T20:03:00.564Z,15.53
2017-09-26T20:05:28.062Z,13.63
2017-09-26T20:07:55.589Z,14.20
2017-09-26T20:10:24.003Z,13.93
2017-09-26T20:12:51.533Z,13.30
2017-09-26T20:15:19.814Z,14.50
2017-09-26T20:17:48.104Z,14.70
2017-09-26T20:20:16.868Z,15.00
2017-09-26T20:22:44.410Z,14.32
2017-09-26T20:25:11.952Z,13.83
2017-09-26T20:27:39.437Z,13.77
2017-09-26T20:30:06.978Z,15.37
2017-09-26T20:32:35.887Z,16.37
2017-09-26T20:35:03.370Z,14.43
2017-09-26T20:37:31.635Z,14.87
2017-09-26T20:39:59.923Z,15.60
2017-09-26T20:42:28.181Z,14.23
2017-09-26T20:44:56.430Z,15.30
2017-09-26T20:47:23.927Z,15.03
2017-09-26T20:49:52.181Z,14.03
2017-09-26T20:52:19.668Z,14.27
2017-09-26T20:54:47.912Z,14.13
2017-09-26T20:57:15.404Z,12.63
2017-09-26T20:59:42.909Z,13.70
2017-09-26T21:02:10.426Z,14.17
2017-09-26T21:04:37.918Z,11.90
2017-09-26T21:07:05.433Z,11.40
2017-09-26T21:09:33.681Z,10.37
2017-09-26T21:12:01.159Z,9.63
2017-09-26T21:14:29.419Z,11.67
2017-09-26T21:16:56.896Z,10.63
2017-09-26T21:19:25.148Z,11.60
2017-09-26T21:21:52.626Z,10.23
2017-09-26T21:24:20.878Z,10.77
2017-09-26T21:26:48.614Z,11.30
2017-09-26T21:29:16.119Z,10.65
2017-09-26T21:31:44.362Z,10.73
2017-09-26T21:34:11.853Z,11.10
2017-09-26T21:36:40.097Z,10.80
2017-09-26T21:39:07.615Z,10.80
2017-09-26T21:41:35.630Z,11.73
2017-09-26T21:44:03.125Z,11.60
2017-09-26T21:46:31.368Z,10.67
2017-09-26T21:48:58.882Z,12.50
2017-09-26T21:51:26.354Z,13.55
2017-09-26T21:53:53.857Z,13.70
2017-09-26T21:56:21.333Z,11.23
2017-09-26T21:58:49.598Z,10.47
2017-09-26T22:01:18.063Z,9.93
2017-09-26T22:03:45.575Z,10.30
2017-09-26T22:06:13.069Z,10.03
2017-09-26T22:08:40.534Z,11.53
2017-09-26T22:11:08.041Z,12.23
2017-09-26T22:13:35.538Z,12.23
2017-09-26T22:18:56.051Z,11.80
2017-09-26T22:21:24.967Z,11.50
2017-09-26T22:23:52.453Z,10.70
2017-09-26T22:26:19.957Z,10.90
2017-09-26T22:28:47.450Z,10.60
2017-09-26T22:31:15.717Z,11.37
2017-09-26T22:33:43.183Z,12.53
2017-09-26T22:36:11.448Z,11.43
2017-09-26T22:38:38.940Z,11.83
2017-09-26T22:41:06.434Z,11.10
2017-09-26T22:43:35.863Z,10.90
2017-09-26T22:46:03.371Z,11.80
2017-09-26T22:48:30.863Z,11.17
2017-09-26T22:50:58.342Z,10.83
2017-09-26T22:53:25.844Z,10.50
2017-09-26T22:55:53.321Z,11.80
2017-09-26T22:58:20.817Z,12.90
2017-09-26T23:00:48.289Z,10.83
2017-09-26T23:03:16.553Z,11.73
2017-09-26T23:05:44.044Z,11.47
2017-09-26T23:08:11.546Z,12.70
2017-09-26T23:10:39.017Z,12.90
2017-09-26T23:13:06.512Z,12.47
2017-09-26T23:15:33.987Z,12.07
2017-09-26T23:18:01.484Z,11.75
2017-09-26T23:20:28.969Z,13.30
2017-09-26T23:22:57.223Z,11.07
2017-09-26T23:25:24.713Z,12.00
2017-09-26T23:27:53.903Z,9.65
2017-09-26T23:30:22.160Z,10.33
2017-09-26T23:32:49.678Z,10.30
2017-09-26T23:35:17.273Z,9.70
2017-09-26T23:37:44.753Z,11.73
2017-09-26T23:40:13.047Z,11.20
2017-09-26T23:42:40.517Z,9.57
2017-09-26T23:45:08.019Z,11.20
2017-09-26T23:47:35.502Z,9.80
2017-09-26T23:50:03.760Z,9.80
2017-09-26T23:52:31.223Z,10.33
2017-09-26T23:54:58.730Z,9.40
2017-09-26T23:57:26.222Z,10.17
2017-09-26T23:59:53.719Z,8.63
